Flight Track Log - Related Links

Times and Time Zones

All times are in EDT time to prevent confusion due to time zone crossing. See the RPA3321 flight status page for this flight to view local times or setup timezone preferences in your user account.

Time Position Orientation Groundspeed Altitude Reporting Facility
EDT Latitude Longitude Course Direction KTS MPH feet Rate Location/Type
Thu 05:41:09 AM 42.7631 -73.8061 180° South 153 176 1,200  Level Boston Center
Thu 05:42:22 AM 42.8128 -73.8325 339° North 180 207 3,800 2,245 Climbing Boston Center
Thu 05:43:00 AM 42.5153 -74.0095 171° South  Level Estimated
Thu 05:43:28 AM 42.8536 -73.9044 308° West 221 254 6,400  Level Boston Center
Thu 05:44:00 AM 42.4373 -74.0783 180° South  Level Estimated
Thu 05:44:28 AM 42.8817 -73.9844 296° West 233 268 9,100  Level Boston Center
Thu 05:45:00 AM 42.3593 -74.1470 170° South  Level Estimated
Thu 05:45:28 AM 42.9183 -74.0617 303° West 255 293 11,200  Level Boston Center
Thu 05:46:00 AM 42.2812 -74.2155 180° South  Level Estimated
Thu 05:46:28 AM 42.9019 -74.1692 258° West 259 298 13,700  Level Boston Center
Thu 05:47:28 AM 42.8147 -74.1469 169° South 227 261 16,800 2,273 Climbing Boston Center
Thu 05:48:40 AM 42.7342 -74.1078 160° South 302 348 18,700 1,591 Climbing Boston Center
Thu 05:49:40 AM 42.6328 -74.0544 159° South 314 361 20,300 1,550 Climbing Boston Center
Thu 05:50:40 AM 42.5439 -74.0069 159° South 327 376 21,800 1,300 Climbing Boston Center
Thu 05:51:40 AM 42.4528 -73.9597 159° South 337 388 22,900 1,250 Climbing Boston Center
Thu 05:52:40 AM 42.3597 -73.9125 159° South 349 402 24,300 1,273 Climbing Boston Center
Thu 05:53:52 AM 42.2478 -73.8536 159° South 356 410 25,700 1,045 Climbing Boston Center
Thu 05:54:52 AM 42.1525 -73.8094 161° South 356 410 26,600 950 Climbing Boston Center
Thu 05:55:52 AM 42.0603 -73.8383 193° South 340 391 27,600 1,250 Climbing Boston Center
Thu 05:56:52 AM 41.9722 -73.8808 200° South 334 384 29,100 1,200 Climbing Boston Center
Thu 05:57:52 AM 41.8842 -73.9208 199° South 334 384 30,000 450 Climbing Boston Center
Thu 05:58:52 AM 41.7983 -73.9606 199° South 340 391 30,000  Level Boston Center
Thu 06:01:16 AM 41.5889 -74.0494 198° South 328 377 30,000  Level New Center
Thu 06:02:17 AM 41.5108 -74.0844 199° South 323 372 30,000  Level New Center
Thu 06:03:14 AM 41.4222 -74.1242 199° South 335 386 30,000  Level New Center
Thu 06:04:15 AM 41.3336 -74.1642 199° South 335 386 30,000  Level New Center
Thu 06:05:17 AM 41.2367 -74.2061 198° South 335 386 30,000  Level New Center
Thu 06:06:15 AM 41.1583 -74.2489 202° Southwest 335 386 30,000  Level New Center
Thu 06:07:15 AM 41.0894 -74.3253 220° Southwest 335 386 30,000  Level New Center
Thu 06:08:16 AM 41.0222 -74.4069 223° Southwest 330 380 30,000  Level New Center
Thu 06:09:16 AM 40.9553 -74.4883 223° Southwest 330 380 30,000  Level New Center
Thu 06:10:15 AM 40.8861 -74.5669 221° Southwest 330 380 30,000  Level New Center
Thu 06:11:17 AM 40.8189 -74.6483 223° Southwest 330 380 30,000  Level New Center
Thu 06:12:16 AM 40.7497 -74.7236 220° Southwest 330 380 30,000  Level New Center
Thu 06:13:14 AM 40.6781 -74.8100 222° Southwest 335 386 30,000  Level New Center
Thu 06:14:15 AM 40.6064 -74.8906 220° Southwest 335 386 30,000  Level New Center
Thu 06:15:15 AM 40.5367 -74.9736 222° Southwest 341 392 30,000  Level New Center
Thu 06:16:16 AM 40.4650 -75.0567 221° Southwest 341 392 30,000  Level New Center
Thu 06:17:14 AM 40.3933 -75.1367 220° Southwest 341 392 30,000 -655 Level New Center
Thu 06:18:15 AM 40.3192 -75.2217 221° Southwest 341 392 28,700 -1,475 Descending New Center
Thu 06:19:16 AM 40.2517 -75.2989 221° Southwest 341 392 27,000 -1,672 Descending New Center
Thu 06:20:17 AM 40.1861 -75.3761 222° Southwest 335 386 25,300 -1,700 Descending New Center
Thu 06:21:16 AM 40.1186 -75.4506 220° Southwest 330 380 23,600 -1,664 Descending New Center
Thu 06:22:16 AM 40.0531 -75.5275 222° Southwest 325 374 22,000 -793 Descending New Center
Thu 06:23:17 AM 39.9853 -75.6014 220° Southwest 325 374 22,000  Level New Center
Thu 06:24:16 AM 39.9197 -75.6753 221° Southwest 325 374 22,000  Level New Center
Thu 06:25:15 AM 39.8658 -75.7664 232° Southwest 325 374 22,000  Level New Center
Thu 06:26:17 AM 39.8225 -75.8578 238° Southwest 320 368 22,000 -300 Level New Center
Thu 06:27:15 AM 39.7744 -75.9517 236° Southwest 315 362 21,400 -1,379 Descending New Center
Thu 06:28:58 AM 39.6833 -76.1167 234° Southwest 313 360 18,300 -1,730 Descending Potomac TRACON
Thu 06:29:58 AM 39.6333 -76.2167 237° Southwest 307 353 16,700 -1,619 Descending Potomac TRACON
Thu 06:31:04 AM 39.5833 -76.3167 237° Southwest 297 342 14,900 -1,579 Descending Potomac TRACON
Thu 06:31:52 AM 39.5333 -76.3500 207° Southwest 297 342 13,700 -1,526 Descending Potomac TRACON
Thu 06:32:58 AM 39.4500 -76.4167 212° Southwest 299 344 12,000 -1,238 Descending Potomac TRACON
Thu 06:33:58 AM 39.3833 -76.4833 218° Southwest 306 352 11,100 -1,000 Descending Potomac TRACON
Thu 06:34:52 AM 39.3167 -76.5333 210° Southwest 315 362 10,100 -579 Descending Potomac TRACON
Thu 06:35:52 AM 39.2333 -76.6000 212° Southwest 308 354 10,000 -50 Descending Potomac TRACON
Thu 06:36:52 AM 39.1833 -76.6667 226° Southwest 266 306 10,000  Level Potomac TRACON
Thu 06:37:46 AM 39.1333 -76.7167 218° Southwest 256 295 10,000 -330 Level Potomac TRACON
Thu 06:38:41 AM 39.0833 -76.7667 218° Southwest 255 293 9,400 -1,474 Descending Potomac TRACON
Thu 06:39:40 AM 39.0333 -76.8333 226° Southwest 265 305 7,200 -1,789 Descending Potomac TRACON
Thu 06:40:35 AM 38.9833 -76.8833 218° Southwest 267 307 6,000 -595 Descending Potomac TRACON
Thu 06:41:41 AM 38.9000 -76.9500 212° Southwest 281 323 6,000  Level Potomac TRACON
Thu 06:42:35 AM 38.8333 -76.9500 180° South 292 336 6,000 -947 Level Potomac TRACON
Thu 06:43:35 AM 38.7667 -76.9500 180° South 255 293 4,200 -1,789 Descending Potomac TRACON
Thu 06:44:29 AM 38.7167 -76.9667 195° South 244 281 2,600 -1,000 Descending Potomac TRACON
Thu 06:45:29 AM 38.7167 -77.0167 270° West 181 208 2,300 -421 Descending Potomac TRACON
Thu 06:46:23 AM 38.7500 -77.0333 339° North 138 159 1,800 -556 Descending Potomac TRACON

Login

Don't have an account? Register now (free) for customized features, flight alerts, and more!